sensor_id;sensor_type;location;lat;lon;timestamp;temperature;humidity
16404;DHT22;8311;50.158;8.642;2023-03-29T00:01:45;20.20;40.70
16404;DHT22;8311;50.158;8.642;2023-03-29T00:04:39;20.20;40.60
16404;DHT22;8311;50.158;8.642;2023-03-29T00:07:33;20.20;40.40
16404;DHT22;8311;50.158;8.642;2023-03-29T00:10:26;20.20;40.30
16404;DHT22;8311;50.158;8.642;2023-03-29T00:13:20;20.20;40.20
16404;DHT22;8311;50.158;8.642;2023-03-29T00:16:12;20.20;40.10
16404;DHT22;8311;50.158;8.642;2023-03-29T00:19:07;20.10;40.00
16404;DHT22;8311;50.158;8.642;2023-03-29T00:22:00;20.10;39.90
16404;DHT22;8311;50.158;8.642;2023-03-29T00:24:54;20.10;39.80
16404;DHT22;8311;50.158;8.642;2023-03-29T00:27:46;20.10;39.80
16404;DHT22;8311;50.158;8.642;2023-03-29T00:30:40;20.10;39.60
16404;DHT22;8311;50.158;8.642;2023-03-29T00:33:33;20.10;39.60
16404;DHT22;8311;50.158;8.642;2023-03-29T00:36:27;20.10;39.50
16404;DHT22;8311;50.158;8.642;2023-03-29T00:39:20;20.10;39.30
16404;DHT22;8311;50.158;8.642;2023-03-29T00:42:15;20.10;39.30
16404;DHT22;8311;50.158;8.642;2023-03-29T00:45:16;20.10;39.20
16404;DHT22;8311;50.158;8.642;2023-03-29T00:48:14;20.10;39.10
16404;DHT22;8311;50.158;8.642;2023-03-29T00:51:09;20.10;39.10
16404;DHT22;8311;50.158;8.642;2023-03-29T00:54:10;20.10;39.00
16404;DHT22;8311;50.158;8.642;2023-03-29T00:57:06;20.10;39.00
16404;DHT22;8311;50.158;8.642;2023-03-29T01:00:00;20.10;39.00
16404;DHT22;8311;50.158;8.642;2023-03-29T01:02:56;20.10;38.90
16404;DHT22;8311;50.158;8.642;2023-03-29T01:05:55;20.10;38.90
16404;DHT22;8311;50.158;8.642;2023-03-29T01:08:53;20.10;38.80
16404;DHT22;8311;50.158;8.642;2023-03-29T01:11:53;20.10;38.60
16404;DHT22;8311;50.158;8.642;2023-03-29T01:14:50;20.00;38.60
16404;DHT22;8311;50.158;8.642;2023-03-29T01:17:45;20.10;38.60
16404;DHT22;8311;50.158;8.642;2023-03-29T01:20:59;20.00;38.60
16404;DHT22;8311;50.158;8.642;2023-03-29T01:27:16;20.00;38.70
16404;DHT22;8311;50.158;8.642;2023-03-29T01:30:18;20.00;38.20
16404;DHT22;8311;50.158;8.642;2023-03-29T01:33:16;20.00;38.10
16404;DHT22;8311;50.158;8.642;2023-03-29T01:36:16;20.00;38.00
16404;DHT22;8311;50.158;8.642;2023-03-29T01:39:12;20.00;37.90
16404;DHT22;8311;50.158;8.642;2023-03-29T01:42:13;20.00;37.90
16404;DHT22;8311;50.158;8.642;2023-03-29T01:45:17;20.00;37.70
16404;DHT22;8311;50.158;8.642;2023-03-29T01:48:17;20.00;37.70
16404;DHT22;8311;50.158;8.642;2023-03-29T01:51:14;19.90;37.60
16404;DHT22;8311;50.158;8.642;2023-03-29T01:54:13;20.00;37.60
16404;DHT22;8311;50.158;8.642;2023-03-29T01:57:09;19.90;37.50
16404;DHT22;8311;50.158;8.642;2023-03-29T02:00:04;19.90;37.40
16404;DHT22;8311;50.158;8.642;2023-03-29T02:03:06;19.90;37.40
16404;DHT22;8311;50.158;8.642;2023-03-29T02:06:01;19.90;37.40
16404;DHT22;8311;50.158;8.642;2023-03-29T02:08:56;19.90;37.30
16404;DHT22;8311;50.158;8.642;2023-03-29T02:11:50;19.90;37.40
16404;DHT22;8311;50.158;8.642;2023-03-29T02:14:44;19.90;37.40
16404;DHT22;8311;50.158;8.642;2023-03-29T02:17:37;19.90;37.40
16404;DHT22;8311;50.158;8.642;2023-03-29T02:20:34;19.90;37.40
16404;DHT22;8311;50.158;8.642;2023-03-29T02:23:32;19.90;37.50
16404;DHT22;8311;50.158;8.642;2023-03-29T02:26:27;19.90;37.40
16404;DHT22;8311;50.158;8.642;2023-03-29T02:29:20;19.90;37.40
16404;DHT22;8311;50.158;8.642;2023-03-29T02:32:16;19.90;37.40
16404;DHT22;8311;50.158;8.642;2023-03-29T02:35:14;19.90;37.40
16404;DHT22;8311;50.158;8.642;2023-03-29T02:38:10;19.90;37.30
16404;DHT22;8311;50.158;8.642;2023-03-29T02:41:06;19.80;37.20
16404;DHT22;8311;50.158;8.642;2023-03-29T02:44:01;19.80;37.30
16404;DHT22;8311;50.158;8.642;2023-03-29T02:47:01;19.80;37.20
16404;DHT22;8311;50.158;8.642;2023-03-29T02:49:55;19.80;37.20
16404;DHT22;8311;50.158;8.642;2023-03-29T02:52:52;19.80;37.20
16404;DHT22;8311;50.158;8.642;2023-03-29T02:55:47;19.80;37.30
16404;DHT22;8311;50.158;8.642;2023-03-29T02:58:41;19.80;37.20
16404;DHT22;8311;50.158;8.642;2023-03-29T03:01:34;19.80;37.20
16404;DHT22;8311;50.158;8.642;2023-03-29T03:04:27;19.80;37.20
16404;DHT22;8311;50.158;8.642;2023-03-29T03:07:20;19.80;37.20
16404;DHT22;8311;50.158;8.642;2023-03-29T03:10:16;19.80;37.20
16404;DHT22;8311;50.158;8.642;2023-03-29T03:13:11;19.80;37.20
16404;DHT22;8311;50.158;8.642;2023-03-29T03:16:06;19.80;37.80
16404;DHT22;8311;50.158;8.642;2023-03-29T03:19:00;19.80;37.10
16404;DHT22;8311;50.158;8.642;2023-03-29T03:21:53;19.80;37.20
16404;DHT22;8311;50.158;8.642;2023-03-29T03:24:47;19.80;37.20
16404;DHT22;8311;50.158;8.642;2023-03-29T03:27:40;19.80;37.20
16404;DHT22;8311;50.158;8.642;2023-03-29T03:30:34;19.80;37.20
16404;DHT22;8311;50.158;8.642;2023-03-29T03:33:27;19.80;37.20
16404;DHT22;8311;50.158;8.642;2023-03-29T03:36:20;19.70;37.10
16404;DHT22;8311;50.158;8.642;2023-03-29T03:39:17;19.70;37.10
16404;DHT22;8311;50.158;8.642;2023-03-29T03:42:11;19.80;37.10
16404;DHT22;8311;50.158;8.642;2023-03-29T03:45:05;19.70;37.10
16404;DHT22;8311;50.158;8.642;2023-03-29T03:48:00;19.70;37.20
16404;DHT22;8311;50.158;8.642;2023-03-29T03:50:54;19.70;37.20
16404;DHT22;8311;50.158;8.642;2023-03-29T03:53:48;19.70;37.20
16404;DHT22;8311;50.158;8.642;2023-03-29T03:56:42;19.70;37.20
16404;DHT22;8311;50.158;8.642;2023-03-29T03:59:35;19.70;37.20
16404;DHT22;8311;50.158;8.642;2023-03-29T04:02:30;19.70;37.20
16404;DHT22;8311;50.158;8.642;2023-03-29T04:05:24;19.70;37.20
16404;DHT22;8311;50.158;8.642;2023-03-29T04:08:18;19.70;37.30
16404;DHT22;8311;50.158;8.642;2023-03-29T04:11:13;19.70;37.30
16404;DHT22;8311;50.158;8.642;2023-03-29T04:14:06;19.70;37.40
16404;DHT22;8311;50.158;8.642;2023-03-29T04:17:00;19.70;37.40
16404;DHT22;8311;50.158;8.642;2023-03-29T04:19:53;19.70;37.50
16404;DHT22;8311;50.158;8.642;2023-03-29T04:22:47;19.70;37.60
16404;DHT22;8311;50.158;8.642;2023-03-29T04:25:41;19.70;37.60
16404;DHT22;8311;50.158;8.642;2023-03-29T04:28:34;19.70;37.70
16404;DHT22;8311;50.158;8.642;2023-03-29T04:31:27;19.70;37.70
16404;DHT22;8311;50.158;8.642;2023-03-29T04:34:20;19.70;37.70
16404;DHT22;8311;50.158;8.642;2023-03-29T04:37:13;19.70;37.80
16404;DHT22;8311;50.158;8.642;2023-03-29T04:40:09;19.70;37.90
16404;DHT22;8311;50.158;8.642;2023-03-29T04:43:05;19.70;37.90
16404;DHT22;8311;50.158;8.642;2023-03-29T04:45:59;19.70;37.90
16404;DHT22;8311;50.158;8.642;2023-03-29T04:48:53;19.70;37.90
16404;DHT22;8311;50.158;8.642;2023-03-29T04:51:46;19.60;37.90
16404;DHT22;8311;50.158;8.642;2023-03-29T04:54:39;19.70;38.00
16404;DHT22;8311;50.158;8.642;2023-03-29T04:57:33;19.60;37.90
16404;DHT22;8311;50.158;8.642;2023-03-29T05:00:27;19.70;38.00
16404;DHT22;8311;50.158;8.642;2023-03-29T05:03:22;19.60;37.90
16404;DHT22;8311;50.158;8.642;2023-03-29T05:06:15;19.60;37.90
16404;DHT22;8311;50.158;8.642;2023-03-29T05:09:09;19.60;37.90
16404;DHT22;8311;50.158;8.642;2023-03-29T05:12:02;19.60;38.00
16404;DHT22;8311;50.158;8.642;2023-03-29T05:14:58;19.60;37.90
16404;DHT22;8311;50.158;8.642;2023-03-29T05:17:51;19.60;37.90
16404;DHT22;8311;50.158;8.642;2023-03-29T05:20:43;19.60;37.80
16404;DHT22;8311;50.158;8.642;2023-03-29T05:23:38;19.60;37.80
16404;DHT22;8311;50.158;8.642;2023-03-29T05:26:31;19.60;37.80
16404;DHT22;8311;50.158;8.642;2023-03-29T05:29:24;19.60;37.80
16404;DHT22;8311;50.158;8.642;2023-03-29T05:32:19;19.60;37.80
16404;DHT22;8311;50.158;8.642;2023-03-29T05:35:12;19.60;37.80
16404;DHT22;8311;50.158;8.642;2023-03-29T05:38:06;19.60;43.60
16404;DHT22;8311;50.158;8.642;2023-03-29T05:41:00;19.70;40.60
16404;DHT22;8311;50.158;8.642;2023-03-29T05:43:52;19.70;39.10
16404;DHT22;8311;50.158;8.642;2023-03-29T05:46:46;19.70;38.40
16404;DHT22;8311;50.158;8.642;2023-03-29T05:49:40;19.70;38.30
16404;DHT22;8311;50.158;8.642;2023-03-29T05:52:34;19.60;38.00
16404;DHT22;8311;50.158;8.642;2023-03-29T05:55:28;19.60;37.80
16404;DHT22;8311;50.158;8.642;2023-03-29T05:58:21;19.60;37.70
16404;DHT22;8311;50.158;8.642;2023-03-29T06:01:17;19.60;37.60
16404;DHT22;8311;50.158;8.642;2023-03-29T06:04:10;19.60;37.50
16404;DHT22;8311;50.158;8.642;2023-03-29T06:07:05;19.60;37.50
16404;DHT22;8311;50.158;8.642;2023-03-29T06:09:59;19.60;37.40
16404;DHT22;8311;50.158;8.642;2023-03-29T06:12:53;19.50;37.30
16404;DHT22;8311;50.158;8.642;2023-03-29T06:15:47;19.50;37.30
16404;DHT22;8311;50.158;8.642;2023-03-29T06:18:40;19.50;37.30
16404;DHT22;8311;50.158;8.642;2023-03-29T06:21:33;19.60;37.40
16404;DHT22;8311;50.158;8.642;2023-03-29T06:24:27;19.50;37.20
16404;DHT22;8311;50.158;8.642;2023-03-29T06:27:20;19.50;37.30
16404;DHT22;8311;50.158;8.642;2023-03-29T06:30:14;19.50;37.30
16404;DHT22;8311;50.158;8.642;2023-03-29T06:33:07;19.60;37.20
16404;DHT22;8311;50.158;8.642;2023-03-29T06:36:01;19.60;37.20
16404;DHT22;8311;50.158;8.642;2023-03-29T06:38:54;19.60;37.30
16404;DHT22;8311;50.158;8.642;2023-03-29T06:41:48;19.50;37.30
16404;DHT22;8311;50.158;8.642;2023-03-29T06:44:42;19.50;37.30
16404;DHT22;8311;50.158;8.642;2023-03-29T06:47:35;19.50;37.30
16404;DHT22;8311;50.158;8.642;2023-03-29T06:50:28;19.50;37.30
16404;DHT22;8311;50.158;8.642;2023-03-29T06:53:22;19.50;37.30
16404;DHT22;8311;50.158;8.642;2023-03-29T06:56:15;19.50;37.20
16404;DHT22;8311;50.158;8.642;2023-03-29T06:59:09;19.50;37.40
16404;DHT22;8311;50.158;8.642;2023-03-29T07:02:02;19.50;37.40
16404;DHT22;8311;50.158;8.642;2023-03-29T07:04:55;19.50;37.40
16404;DHT22;8311;50.158;8.642;2023-03-29T07:07:48;19.50;37.30
16404;DHT22;8311;50.158;8.642;2023-03-29T07:10:50;19.50;37.30
16404;DHT22;8311;50.158;8.642;2023-03-29T07:13:44;19.50;37.30
16404;DHT22;8311;50.158;8.642;2023-03-29T07:16:41;19.50;37.40
16404;DHT22;8311;50.158;8.642;2023-03-29T07:19:38;19.50;37.40
16404;DHT22;8311;50.158;8.642;2023-03-29T07:22:31;19.50;37.40
16404;DHT22;8311;50.158;8.642;2023-03-29T07:25:24;19.50;37.40
16404;DHT22;8311;50.158;8.642;2023-03-29T07:28:18;19.50;37.40
16404;DHT22;8311;50.158;8.642;2023-03-29T07:31:11;19.50;37.40
16404;DHT22;8311;50.158;8.642;2023-03-29T07:34:07;19.50;37.40
16404;DHT22;8311;50.158;8.642;2023-03-29T07:37:01;19.50;37.50
16404;DHT22;8311;50.158;8.642;2023-03-29T07:39:54;19.50;37.50
16404;DHT22;8311;50.158;8.642;2023-03-29T07:42:47;19.50;37.40
16404;DHT22;8311;50.158;8.642;2023-03-29T07:45:41;19.50;37.50
16404;DHT22;8311;50.158;8.642;2023-03-29T07:48:35;19.50;37.50
16404;DHT22;8311;50.158;8.642;2023-03-29T07:51:30;19.50;37.40
16404;DHT22;8311;50.158;8.642;2023-03-29T07:54:24;19.50;37.40
16404;DHT22;8311;50.158;8.642;2023-03-29T07:57:17;19.50;37.70
16404;DHT22;8311;50.158;8.642;2023-03-29T08:00:12;19.50;38.50
16404;DHT22;8311;50.158;8.642;2023-03-29T08:03:09;19.60;38.70
16404;DHT22;8311;50.158;8.642;2023-03-29T08:06:04;19.70;38.80
16404;DHT22;8311;50.158;8.642;2023-03-29T08:08:59;19.80;38.70
16404;DHT22;8311;50.158;8.642;2023-03-29T08:11:52;19.90;38.70
16404;DHT22;8311;50.158;8.642;2023-03-29T08:14:45;20.10;38.70
16404;DHT22;8311;50.158;8.642;2023-03-29T08:17:38;20.20;38.60
16404;DHT22;8311;50.158;8.642;2023-03-29T08:20:32;20.40;38.70
16404;DHT22;8311;50.158;8.642;2023-03-29T08:23:25;20.40;38.90
16404;DHT22;8311;50.158;8.642;2023-03-29T08:26:19;20.50;40.20
16404;DHT22;8311;50.158;8.642;2023-03-29T08:29:13;20.60;41.40
16404;DHT22;8311;50.158;8.642;2023-03-29T08:32:07;20.60;42.10
16404;DHT22;8311;50.158;8.642;2023-03-29T08:35:00;20.70;42.10
16404;DHT22;8311;50.158;8.642;2023-03-29T08:37:55;20.90;41.60
16404;DHT22;8311;50.158;8.642;2023-03-29T08:40:48;21.00;41.60
16404;DHT22;8311;50.158;8.642;2023-03-29T08:43:54;21.10;41.60
16404;DHT22;8311;50.158;8.642;2023-03-29T08:46:54;21.20;41.50
16404;DHT22;8311;50.158;8.642;2023-03-29T08:49:52;21.30;41.40
16404;DHT22;8311;50.158;8.642;2023-03-29T08:52:49;21.40;41.40
16404;DHT22;8311;50.158;8.642;2023-03-29T08:55:45;21.50;41.40
16404;DHT22;8311;50.158;8.642;2023-03-29T08:58:39;21.60;41.50
16404;DHT22;8311;50.158;8.642;2023-03-29T09:01:34;21.60;41.40
16404;DHT22;8311;50.158;8.642;2023-03-29T09:04:32;21.70;41.50
16404;DHT22;8311;50.158;8.642;2023-03-29T09:07:26;21.80;41.40
16404;DHT22;8311;50.158;8.642;2023-03-29T09:10:22;21.90;41.50
16404;DHT22;8311;50.158;8.642;2023-03-29T09:13:25;22.00;41.50
16404;DHT22;8311;50.158;8.642;2023-03-29T09:16:25;22.10;41.40
16404;DHT22;8311;50.158;8.642;2023-03-29T09:19:28;22.10;41.50
16404;DHT22;8311;50.158;8.642;2023-03-29T09:22:31;22.20;41.40
16404;DHT22;8311;50.158;8.642;2023-03-29T09:25:46;22.20;41.40
16404;DHT22;8311;50.158;8.642;2023-03-29T09:28:53;22.30;41.40
16404;DHT22;8311;50.158;8.642;2023-03-29T09:31:48;22.30;41.30
16404;DHT22;8311;50.158;8.642;2023-03-29T09:34:48;22.30;41.40
16404;DHT22;8311;50.158;8.642;2023-03-29T09:37:46;22.40;41.50
16404;DHT22;8311;50.158;8.642;2023-03-29T09:40:42;22.40;41.60
16404;DHT22;8311;50.158;8.642;2023-03-29T09:43:40;22.50;41.70
16404;DHT22;8311;50.158;8.642;2023-03-29T09:46:37;22.50;41.80
16404;DHT22;8311;50.158;8.642;2023-03-29T09:49:33;22.50;41.30
16404;DHT22;8311;50.158;8.642;2023-03-29T09:52:29;22.50;40.70
16404;DHT22;8311;50.158;8.642;2023-03-29T09:55:26;22.50;40.30
16404;DHT22;8311;50.158;8.642;2023-03-29T09:58:22;22.50;40.10
16404;DHT22;8311;50.158;8.642;2023-03-29T10:01:16;22.60;39.60
16404;DHT22;8311;50.158;8.642;2023-03-29T10:04:10;22.60;40.00
16404;DHT22;8311;50.158;8.642;2023-03-29T10:07:05;22.60;39.70
16404;DHT22;8311;50.158;8.642;2023-03-29T10:10:00;22.60;39.60
16404;DHT22;8311;50.158;8.642;2023-03-29T10:12:57;22.70;39.60
16404;DHT22;8311;50.158;8.642;2023-03-29T10:15:57;22.70;39.50
16404;DHT22;8311;50.158;8.642;2023-03-29T10:18:52;22.70;39.40
16404;DHT22;8311;50.158;8.642;2023-03-29T10:21:46;22.70;39.50
16404;DHT22;8311;50.158;8.642;2023-03-29T10:24:46;22.80;39.80
16404;DHT22;8311;50.158;8.642;2023-03-29T10:27:46;22.80;40.30
16404;DHT22;8311;50.158;8.642;2023-03-29T10:30:39;22.80;41.20
16404;DHT22;8311;50.158;8.642;2023-03-29T10:33:34;22.90;41.50
16404;DHT22;8311;50.158;8.642;2023-03-29T10:36:28;22.90;41.50
16404;DHT22;8311;50.158;8.642;2023-03-29T10:39:24;22.80;41.60
16404;DHT22;8311;50.158;8.642;2023-03-29T10:42:19;22.80;41.60
16404;DHT22;8311;50.158;8.642;2023-03-29T10:45:24;22.70;41.20
16404;DHT22;8311;50.158;8.642;2023-03-29T10:48:23;22.70;41.70
16404;DHT22;8311;50.158;8.642;2023-03-29T10:51:17;22.70;41.90
16404;DHT22;8311;50.158;8.642;2023-03-29T10:54:13;22.60;41.90
16404;DHT22;8311;50.158;8.642;2023-03-29T10:57:11;22.40;39.00
16404;DHT22;8311;50.158;8.642;2023-03-29T11:00:12;22.20;38.30
16404;DHT22;8311;50.158;8.642;2023-03-29T11:03:39;22.20;39.30
16404;DHT22;8311;50.158;8.642;2023-03-29T11:06:40;22.20;39.80
16404;DHT22;8311;50.158;8.642;2023-03-29T11:09:45;22.20;40.00
16404;DHT22;8311;50.158;8.642;2023-03-29T11:12:50;22.10;40.80
16404;DHT22;8311;50.158;8.642;2023-03-29T11:15:56;22.10;40.90
16404;DHT22;8311;50.158;8.642;2023-03-29T11:19:18;22.10;41.00
16404;DHT22;8311;50.158;8.642;2023-03-29T11:22:18;22.10;42.20
16404;DHT22;8311;50.158;8.642;2023-03-29T11:25:22;22.00;42.50
16404;DHT22;8311;50.158;8.642;2023-03-29T11:28:24;22.00;42.50
16404;DHT22;8311;50.158;8.642;2023-03-29T11:31:30;22.00;42.50
16404;DHT22;8311;50.158;8.642;2023-03-29T11:34:34;22.00;42.80
16404;DHT22;8311;50.158;8.642;2023-03-29T11:37:35;22.00;43.10
16404;DHT22;8311;50.158;8.642;2023-03-29T11:40:39;21.90;43.30
16404;DHT22;8311;50.158;8.642;2023-03-29T11:43:38;21.90;43.30
16404;DHT22;8311;50.158;8.642;2023-03-29T11:46:36;21.90;43.40
16404;DHT22;8311;50.158;8.642;2023-03-29T11:49:35;21.90;43.50
16404;DHT22;8311;50.158;8.642;2023-03-29T11:52:34;21.90;43.40
16404;DHT22;8311;50.158;8.642;2023-03-29T11:55:32;21.90;43.50
16404;DHT22;8311;50.158;8.642;2023-03-29T11:58:30;21.90;43.60
16404;DHT22;8311;50.158;8.642;2023-03-29T12:01:30;21.90;43.90
16404;DHT22;8311;50.158;8.642;2023-03-29T12:04:29;21.90;43.90
16404;DHT22;8311;50.158;8.642;2023-03-29T12:07:28;21.90;44.00
16404;DHT22;8311;50.158;8.642;2023-03-29T12:10:27;22.00;43.70
16404;DHT22;8311;50.158;8.642;2023-03-29T12:13:29;22.10;43.90
16404;DHT22;8311;50.158;8.642;2023-03-29T12:16:27;22.10;43.60
16404;DHT22;8311;50.158;8.642;2023-03-29T12:19:27;22.10;43.50
16404;DHT22;8311;50.158;8.642;2023-03-29T12:22:21;22.20;43.90
16404;DHT22;8311;50.158;8.642;2023-03-29T12:25:19;22.20;43.90
16404;DHT22;8311;50.158;8.642;2023-03-29T12:28:30;22.10;44.10
16404;DHT22;8311;50.158;8.642;2023-03-29T12:31:29;22.10;44.20
16404;DHT22;8311;50.158;8.642;2023-03-29T12:34:43;22.10;44.10
16404;DHT22;8311;50.158;8.642;2023-03-29T12:37:44;22.10;44.60
16404;DHT22;8311;50.158;8.642;2023-03-29T12:40:42;22.10;44.60
16404;DHT22;8311;50.158;8.642;2023-03-29T12:43:37;22.10;44.80
16404;DHT22;8311;50.158;8.642;2023-03-29T12:46:33;22.10;44.60
16404;DHT22;8311;50.158;8.642;2023-03-29T12:49:28;22.00;44.40
16404;DHT22;8311;50.158;8.642;2023-03-29T12:52:26;22.00;44.20
16404;DHT22;8311;50.158;8.642;2023-03-29T12:55:29;22.00;44.20
16404;DHT22;8311;50.158;8.642;2023-03-29T12:58:35;22.00;44.10
16404;DHT22;8311;50.158;8.642;2023-03-29T13:01:33;21.90;43.90
16404;DHT22;8311;50.158;8.642;2023-03-29T13:04:37;21.90;43.90
16404;DHT22;8311;50.158;8.642;2023-03-29T13:07:42;21.90;43.80
16404;DHT22;8311;50.158;8.642;2023-03-29T13:10:40;21.80;43.70
16404;DHT22;8311;50.158;8.642;2023-03-29T13:13:36;21.80;43.70
16404;DHT22;8311;50.158;8.642;2023-03-29T13:16:31;21.80;43.60
16404;DHT22;8311;50.158;8.642;2023-03-29T13:19:31;21.70;43.50
16404;DHT22;8311;50.158;8.642;2023-03-29T13:22:33;21.70;43.50
16404;DHT22;8311;50.158;8.642;2023-03-29T13:25:41;21.70;43.40
16404;DHT22;8311;50.158;8.642;2023-03-29T13:28:48;21.70;43.40
16404;DHT22;8311;50.158;8.642;2023-03-29T13:31:52;21.60;43.40
16404;DHT22;8311;50.158;8.642;2023-03-29T13:34:51;21.60;43.40
16404;DHT22;8311;50.158;8.642;2023-03-29T13:37:56;21.60;43.30
16404;DHT22;8311;50.158;8.642;2023-03-29T13:40:59;21.60;43.30
16404;DHT22;8311;50.158;8.642;2023-03-29T13:43:55;21.60;43.30
16404;DHT22;8311;50.158;8.642;2023-03-29T13:46:59;21.50;43.20
16404;DHT22;8311;50.158;8.642;2023-03-29T13:49:56;21.50;43.20
16404;DHT22;8311;50.158;8.642;2023-03-29T13:52:57;21.40;43.20
16404;DHT22;8311;50.158;8.642;2023-03-29T13:55:53;21.40;43.10
16404;DHT22;8311;50.158;8.642;2023-03-29T13:58:48;21.40;43.10
16404;DHT22;8311;50.158;8.642;2023-03-29T14:01:49;21.50;43.20
16404;DHT22;8311;50.158;8.642;2023-03-29T14:04:48;21.50;43.10
16404;DHT22;8311;50.158;8.642;2023-03-29T14:07:46;21.40;43.10
16404;DHT22;8311;50.158;8.642;2023-03-29T14:10:41;21.40;43.00
16404;DHT22;8311;50.158;8.642;2023-03-29T14:13:36;21.40;43.00
16404;DHT22;8311;50.158;8.642;2023-03-29T14:16:30;21.40;43.00
16404;DHT22;8311;50.158;8.642;2023-03-29T14:19:29;21.40;43.70
16404;DHT22;8311;50.158;8.642;2023-03-29T14:22:22;21.40;43.00
16404;DHT22;8311;50.158;8.642;2023-03-29T14:25:17;21.40;43.00
16404;DHT22;8311;50.158;8.642;2023-03-29T14:28:18;21.30;43.00
16404;DHT22;8311;50.158;8.642;2023-03-29T14:31:18;21.30;43.00
16404;DHT22;8311;50.158;8.642;2023-03-29T14:34:13;21.30;43.00
16404;DHT22;8311;50.158;8.642;2023-03-29T14:37:10;21.30;43.00
16404;DHT22;8311;50.158;8.642;2023-03-29T14:40:11;21.30;43.00
16404;DHT22;8311;50.158;8.642;2023-03-29T14:43:07;21.30;43.00
16404;DHT22;8311;50.158;8.642;2023-03-29T14:46:03;21.30;43.00
16404;DHT22;8311;50.158;8.642;2023-03-29T14:48:57;21.20;42.90
16404;DHT22;8311;50.158;8.642;2023-03-29T14:51:52;21.20;42.90
16404;DHT22;8311;50.158;8.642;2023-03-29T14:54:50;21.20;42.90
16404;DHT22;8311;50.158;8.642;2023-03-29T14:57:46;21.20;42.90
16404;DHT22;8311;50.158;8.642;2023-03-29T15:00:40;21.20;42.90
16404;DHT22;8311;50.158;8.642;2023-03-29T15:03:42;21.20;42.90
16404;DHT22;8311;50.158;8.642;2023-03-29T15:06:37;21.20;42.90
16404;DHT22;8311;50.158;8.642;2023-03-29T15:09:33;21.20;42.90
16404;DHT22;8311;50.158;8.642;2023-03-29T15:12:29;21.20;42.90
16404;DHT22;8311;50.158;8.642;2023-03-29T15:15:23;21.20;42.90
16404;DHT22;8311;50.158;8.642;2023-03-29T15:18:17;21.20;42.90
16404;DHT22;8311;50.158;8.642;2023-03-29T15:21:12;21.20;42.90
16404;DHT22;8311;50.158;8.642;2023-03-29T15:24:18;21.10;42.90
16404;DHT22;8311;50.158;8.642;2023-03-29T15:27:15;21.10;42.90
16404;DHT22;8311;50.158;8.642;2023-03-29T15:30:13;21.10;42.90
16404;DHT22;8311;50.158;8.642;2023-03-29T15:33:13;21.10;42.90
16404;DHT22;8311;50.158;8.642;2023-03-29T15:36:09;21.10;42.90
16404;DHT22;8311;50.158;8.642;2023-03-29T15:39:03;21.10;42.90
16404;DHT22;8311;50.158;8.642;2023-03-29T15:41:56;21.10;42.90
16404;DHT22;8311;50.158;8.642;2023-03-29T15:44:52;21.10;42.90
16404;DHT22;8311;50.158;8.642;2023-03-29T15:47:47;21.10;42.90
16404;DHT22;8311;50.158;8.642;2023-03-29T15:50:42;21.10;42.90
16404;DHT22;8311;50.158;8.642;2023-03-29T15:53:35;21.10;42.90
16404;DHT22;8311;50.158;8.642;2023-03-29T15:56:29;21.10;42.90
16404;DHT22;8311;50.158;8.642;2023-03-29T15:59:24;21.10;42.90
16404;DHT22;8311;50.158;8.642;2023-03-29T16:02:20;21.10;42.90
16404;DHT22;8311;50.158;8.642;2023-03-29T16:05:16;21.00;42.90
16404;DHT22;8311;50.158;8.642;2023-03-29T16:08:10;21.10;42.90
16404;DHT22;8311;50.158;8.642;2023-03-29T16:11:04;21.00;42.90
16404;DHT22;8311;50.158;8.642;2023-03-29T16:13:57;21.00;42.90
16404;DHT22;8311;50.158;8.642;2023-03-29T16:16:51;21.00;42.80
16404;DHT22;8311;50.158;8.642;2023-03-29T16:19:44;21.00;42.90
16404;DHT22;8311;50.158;8.642;2023-03-29T16:22:39;21.00;42.90
16404;DHT22;8311;50.158;8.642;2023-03-29T16:25:33;21.00;42.90
16404;DHT22;8311;50.158;8.642;2023-03-29T16:28:27;21.00;42.90
16404;DHT22;8311;50.158;8.642;2023-03-29T16:31:21;21.00;42.90
16404;DHT22;8311;50.158;8.642;2023-03-29T16:34:17;21.00;42.90
16404;DHT22;8311;50.158;8.642;2023-03-29T16:37:11;21.00;42.90
16404;DHT22;8311;50.158;8.642;2023-03-29T16:40:07;21.00;42.90
16404;DHT22;8311;50.158;8.642;2023-03-29T16:43:03;21.00;42.90
16404;DHT22;8311;50.158;8.642;2023-03-29T16:45:55;21.00;42.90
16404;DHT22;8311;50.158;8.642;2023-03-29T16:48:48;21.00;42.90
16404;DHT22;8311;50.158;8.642;2023-03-29T16:51:41;21.00;42.90
16404;DHT22;8311;50.158;8.642;2023-03-29T16:54:35;21.00;42.90
16404;DHT22;8311;50.158;8.642;2023-03-29T16:57:29;21.00;42.90
16404;DHT22;8311;50.158;8.642;2023-03-29T17:00:23;21.00;42.90
16404;DHT22;8311;50.158;8.642;2023-03-29T17:03:15;21.00;42.90
16404;DHT22;8311;50.158;8.642;2023-03-29T17:06:10;21.00;42.90
16404;DHT22;8311;50.158;8.642;2023-03-29T17:09:03;21.00;42.90
16404;DHT22;8311;50.158;8.642;2023-03-29T17:11:56;20.90;42.80
16404;DHT22;8311;50.158;8.642;2023-03-29T17:14:51;20.90;42.80
16404;DHT22;8311;50.158;8.642;2023-03-29T17:17:44;20.90;42.80
16404;DHT22;8311;50.158;8.642;2023-03-29T17:20:38;20.90;42.80
16404;DHT22;8311;50.158;8.642;2023-03-29T17:23:31;20.90;42.80
16404;DHT22;8311;50.158;8.642;2023-03-29T17:26:23;20.90;42.80
16404;DHT22;8311;50.158;8.642;2023-03-29T17:29:17;20.90;42.80
16404;DHT22;8311;50.158;8.642;2023-03-29T17:32:11;20.90;42.80
16404;DHT22;8311;50.158;8.642;2023-03-29T17:35:05;20.90;42.80
16404;DHT22;8311;50.158;8.642;2023-03-29T17:37:58;20.90;42.80
16404;DHT22;8311;50.158;8.642;2023-03-29T17:40:52;20.90;42.80
16404;DHT22;8311;50.158;8.642;2023-03-29T17:43:46;20.90;42.80
16404;DHT22;8311;50.158;8.642;2023-03-29T17:46:39;20.90;42.80
16404;DHT22;8311;50.158;8.642;2023-03-29T17:49:34;20.90;42.80
16404;DHT22;8311;50.158;8.642;2023-03-29T17:52:26;20.90;42.80
16404;DHT22;8311;50.158;8.642;2023-03-29T17:55:19;20.90;42.80
16404;DHT22;8311;50.158;8.642;2023-03-29T17:58:12;20.90;42.80
16404;DHT22;8311;50.158;8.642;2023-03-29T18:01:06;20.90;42.80
16404;DHT22;8311;50.158;8.642;2023-03-29T18:03:59;20.90;42.80
16404;DHT22;8311;50.158;8.642;2023-03-29T18:06:54;20.80;42.80
16404;DHT22;8311;50.158;8.642;2023-03-29T18:09:48;20.90;42.90
16404;DHT22;8311;50.158;8.642;2023-03-29T18:12:42;20.80;42.80
16404;DHT22;8311;50.158;8.642;2023-03-29T18:15:37;20.90;42.80
16404;DHT22;8311;50.158;8.642;2023-03-29T18:18:29;20.90;42.80
16404;DHT22;8311;50.158;8.642;2023-03-29T18:21:24;20.90;42.90
16404;DHT22;8311;50.158;8.642;2023-03-29T18:24:19;20.90;42.80
16404;DHT22;8311;50.158;8.642;2023-03-29T18:27:13;20.90;42.90
16404;DHT22;8311;50.158;8.642;2023-03-29T18:30:07;20.90;42.80
16404;DHT22;8311;50.158;8.642;2023-03-29T18:33:01;20.90;42.80
16404;DHT22;8311;50.158;8.642;2023-03-29T18:35:53;20.90;42.80
16404;DHT22;8311;50.158;8.642;2023-03-29T18:38:47;20.80;42.80
16404;DHT22;8311;50.158;8.642;2023-03-29T18:41:41;20.80;42.80
16404;DHT22;8311;50.158;8.642;2023-03-29T18:44:35;20.80;42.80
16404;DHT22;8311;50.158;8.642;2023-03-29T18:47:27;20.80;42.80
16404;DHT22;8311;50.158;8.642;2023-03-29T18:50:21;20.80;42.80
16404;DHT22;8311;50.158;8.642;2023-03-29T18:53:15;20.80;42.80